createdAt,value
2023-04-08T00:00:57.377Z,9.16
2023-04-08T00:03:26.802Z,9.09
2023-04-08T00:05:54.852Z,9.01
2023-04-08T00:08:24.473Z,8.96
2023-04-08T00:10:52.637Z,8.92
2023-04-08T00:13:21.529Z,8.91
2023-04-08T00:15:49.538Z,8.93
2023-04-08T00:18:17.885Z,8.99
2023-04-08T00:20:47.256Z,9.06
2023-04-08T00:23:15.815Z,9.09
2023-04-08T00:25:44.359Z,9.11
2023-04-08T00:28:15.065Z,9.11
2023-04-08T00:30:43.978Z,9.13
2023-04-08T00:33:12.069Z,9.16
2023-04-08T00:35:42.075Z,9.17
2023-04-08T00:38:10.581Z,9.20
2023-04-08T00:40:39.525Z,9.21
2023-04-08T00:43:07.665Z,9.23
2023-04-08T00:45:42.277Z,9.22
2023-04-08T00:48:11.278Z,9.23
2023-04-08T00:50:39.630Z,9.24
2023-04-08T00:53:27.522Z,9.26
2023-04-08T00:55:55.637Z,9.27
2023-04-08T00:58:23.737Z,9.29
2023-04-08T01:00:59.571Z,9.30
2023-04-08T01:03:35.561Z,9.31
2023-04-08T01:06:43.261Z,9.31
2023-04-08T01:09:11.597Z,9.32
2023-04-08T01:11:43.725Z,9.32
2023-04-08T01:14:12.659Z,9.32
2023-04-08T01:16:41.980Z,9.34
2023-04-08T01:19:14.310Z,9.35
2023-04-08T01:21:42.813Z,9.35
2023-04-08T01:24:31.681Z,9.35
2023-04-08T01:27:00.000Z,9.35
2023-04-08T01:29:29.281Z,9.35
2023-04-08T01:31:57.554Z,9.36
2023-04-08T01:34:28.599Z,9.36
2023-04-08T01:36:58.577Z,9.34
2023-04-08T01:39:27.025Z,9.32
2023-04-08T01:41:55.400Z,9.31
2023-04-08T01:44:26.548Z,9.28
2023-04-08T01:46:54.946Z,9.25
2023-04-08T01:49:24.035Z,9.20
2023-04-08T01:51:52.211Z,9.17
2023-04-08T01:54:20.968Z,9.15
2023-04-08T01:56:49.044Z,9.13
2023-04-08T01:59:17.273Z,9.11
2023-04-08T02:01:46.857Z,9.09
2023-04-08T02:04:15.815Z,9.09
2023-04-08T02:06:45.788Z,9.10
2023-04-08T02:09:13.893Z,9.10
2023-04-08T02:11:42.539Z,9.09
2023-04-08T02:14:11.191Z,9.10
2023-04-08T02:16:53.780Z,9.11
2023-04-08T02:19:27.097Z,9.13
2023-04-08T02:22:03.113Z,9.13
2023-04-08T02:24:31.785Z,9.07
2023-04-08T02:27:00.407Z,8.98
2023-04-08T02:29:29.685Z,8.91
2023-04-08T02:32:01.918Z,8.83
2023-04-08T02:34:31.047Z,8.78
2023-04-08T02:36:59.344Z,8.77
2023-04-08T02:39:36.467Z,8.81
2023-04-08T02:42:05.587Z,8.86
2023-04-08T02:44:34.019Z,8.91
2023-04-08T02:47:04.205Z,8.96
2023-04-08T02:49:33.373Z,8.99
2023-04-08T02:52:12.602Z,9.01
2023-04-08T02:54:42.111Z,9.03
2023-04-08T02:57:10.344Z,9.06
2023-04-08T02:59:41.613Z,9.07
2023-04-08T03:02:10.907Z,9.08
2023-04-08T03:04:39.199Z,9.09
2023-04-08T03:07:08.693Z,9.10
2023-04-08T03:09:44.761Z,9.09
2023-04-08T03:12:13.817Z,9.09
2023-04-08T03:14:42.753Z,9.09
2023-04-08T03:17:11.240Z,9.09
2023-04-08T03:19:40.148Z,9.09
2023-04-08T03:22:09.908Z,9.10
2023-04-08T03:24:39.265Z,9.10
2023-04-08T03:27:08.534Z,9.08
2023-04-08T03:29:36.879Z,9.07
2023-04-08T03:32:06.417Z,9.06
2023-04-08T03:34:35.617Z,9.06
2023-04-08T03:37:03.771Z,9.06
2023-04-08T03:39:32.180Z,9.08
2023-04-08T03:42:01.271Z,9.08
2023-04-08T03:44:29.498Z,9.08
2023-04-08T03:46:57.620Z,9.06
2023-04-08T03:49:26.301Z,9.09
2023-04-08T03:51:54.333Z,9.09
2023-04-08T03:54:22.635Z,9.07
2023-04-08T03:56:54.119Z,9.07
2023-04-08T03:59:25.941Z,9.06
2023-04-08T04:01:54.159Z,9.02
2023-04-08T04:04:22.334Z,9.01
2023-04-08T04:06:51.194Z,9.00
2023-04-08T04:09:19.442Z,8.99
2023-04-08T04:11:47.768Z,9.00
2023-04-08T04:14:18.750Z,9.01
2023-04-08T04:16:47.650Z,9.02
2023-04-08T04:19:17.908Z,9.02
2023-04-08T04:21:52.559Z,9.04
2023-04-08T04:24:21.264Z,9.05
2023-04-08T04:26:49.371Z,9.05
2023-04-08T04:29:17.460Z,9.06
2023-04-08T04:31:47.373Z,9.08
2023-04-08T04:34:16.153Z,9.11
2023-04-08T04:36:44.918Z,9.13
2023-04-08T04:39:16.355Z,9.18
2023-04-08T04:41:47.624Z,9.22
2023-04-08T04:44:16.160Z,9.27
2023-04-08T04:46:44.554Z,9.32
2023-04-08T04:49:13.068Z,9.35
2023-04-08T04:51:41.230Z,9.36
2023-04-08T04:54:09.315Z,9.38
2023-04-08T04:56:37.593Z,9.39
2023-04-08T04:59:06.907Z,9.40
2023-04-08T05:01:36.519Z,9.44
2023-04-08T05:04:04.790Z,9.47
2023-04-08T05:06:41.497Z,9.50
2023-04-08T05:09:10.494Z,9.52
2023-04-08T05:11:38.595Z,9.56
2023-04-08T05:14:10.609Z,9.59
2023-04-08T05:16:39.429Z,9.60
2023-04-08T05:19:07.801Z,9.60
2023-04-08T05:21:39.536Z,9.61
2023-04-08T05:24:08.072Z,9.62
2023-04-08T05:26:37.949Z,9.63
2023-04-08T05:29:07.707Z,9.65
2023-04-08T05:31:38.198Z,9.67
2023-04-08T05:34:06.394Z,9.69
2023-04-08T05:36:36.187Z,9.75
2023-04-08T05:39:06.370Z,9.83
2023-04-08T05:41:35.799Z,9.88
2023-04-08T05:44:04.017Z,9.93
2023-04-08T05:46:32.154Z,9.98
2023-04-08T05:49:00.735Z,10.06
2023-04-08T05:51:29.024Z,10.12
2023-04-08T05:53:58.529Z,10.20
2023-04-08T05:56:32.533Z,10.31
2023-04-08T05:59:01.844Z,10.40
2023-04-08T06:01:30.088Z,10.54
2023-04-08T06:03:58.619Z,10.72
2023-04-08T06:06:27.102Z,10.82
2023-04-08T06:08:55.686Z,10.89
2023-04-08T06:11:24.534Z,10.91
2023-04-08T06:13:53.501Z,10.93
2023-04-08T06:16:21.781Z,11.01
2023-04-08T06:18:56.962Z,11.11
2023-04-08T06:21:25.017Z,11.28
2023-04-08T06:23:53.107Z,11.48
2023-04-08T06:26:21.742Z,11.64
2023-04-08T06:28:50.179Z,11.71
2023-04-08T06:31:19.346Z,11.82
2023-04-08T06:33:47.515Z,11.97
2023-04-08T06:36:16.373Z,12.10
2023-04-08T06:38:44.544Z,12.22
2023-04-08T06:41:12.713Z,12.31
2023-04-08T06:43:41.552Z,12.43
2023-04-08T06:46:09.593Z,12.47
2023-04-08T06:48:39.233Z,12.49
2023-04-08T06:51:08.229Z,12.51
2023-04-08T06:53:38.480Z,12.58
2023-04-08T06:56:07.214Z,12.70
2023-04-08T06:58:40.537Z,12.78
2023-04-08T07:01:08.875Z,12.84
2023-04-08T07:03:38.127Z,12.92
2023-04-08T07:06:06.625Z,12.96
2023-04-08T07:08:36.654Z,13.02
2023-04-08T07:11:05.858Z,13.07
2023-04-08T07:13:34.792Z,13.12
2023-04-08T07:16:02.869Z,13.25
2023-04-08T07:18:34.093Z,13.34
2023-04-08T07:21:02.487Z,13.48
2023-04-08T07:23:32.735Z,13.63
2023-04-08T07:26:06.874Z,13.65
2023-04-08T07:28:35.787Z,13.71
2023-04-08T07:31:15.374Z,13.82
2023-04-08T07:33:44.734Z,13.82
2023-04-08T07:36:18.598Z,13.88
2023-04-08T07:38:47.775Z,14.00
2023-04-08T07:41:19.701Z,14.15
2023-04-08T07:43:47.880Z,14.22
2023-04-08T07:46:16.213Z,14.28
2023-04-08T07:48:44.788Z,14.39
2023-04-08T07:51:14.914Z,14.47
2023-04-08T07:53:43.248Z,14.56
2023-04-08T07:56:12.703Z,14.67
2023-04-08T07:58:41.390Z,14.77
2023-04-08T08:01:21.311Z,14.84
2023-04-08T08:03:52.059Z,14.91
2023-04-08T08:06:20.995Z,14.95
2023-04-08T08:08:50.086Z,15.02
2023-04-08T08:11:18.132Z,15.08
2023-04-08T08:13:53.887Z,15.19
2023-04-08T08:16:28.736Z,15.23
2023-04-08T08:18:58.379Z,15.33
2023-04-08T08:21:38.231Z,15.45
2023-04-08T08:24:07.046Z,15.54
2023-04-08T08:26:37.185Z,15.65
2023-04-08T08:29:09.062Z,15.84
2023-04-08T08:31:38.246Z,16.04
2023-04-08T08:34:06.319Z,16.20
2023-04-08T08:36:35.074Z,16.33
2023-04-08T08:39:03.423Z,16.42
2023-04-08T08:41:37.958Z,16.55
2023-04-08T08:44:07.793Z,16.76
2023-04-08T08:46:36.284Z,16.91
2023-04-08T08:49:04.558Z,17.04
2023-04-08T08:51:32.935Z,17.20
2023-04-08T08:54:04.794Z,17.30
2023-04-08T08:56:34.503Z,17.41
2023-04-08T08:59:03.760Z,17.64
2023-04-08T09:01:34.709Z,17.93
2023-04-08T09:04:09.947Z,18.09
2023-04-08T09:06:39.565Z,18.28
2023-04-08T09:09:10.662Z,18.49
2023-04-08T09:11:40.931Z,18.71
2023-04-08T09:14:22.812Z,18.88
2023-04-08T09:16:51.727Z,18.90
2023-04-08T09:19:19.875Z,19.09
2023-04-08T09:22:20.062Z,19.31
2023-04-08T09:24:48.117Z,19.40
2023-04-08T09:27:16.229Z,19.44
2023-04-08T09:29:45.827Z,19.45
2023-04-08T09:32:13.890Z,19.43
2023-04-08T09:34:42.939Z,19.58
2023-04-08T09:37:11.985Z,19.86
2023-04-08T09:39:46.591Z,20.06
2023-04-08T09:42:14.678Z,20.12
2023-04-08T09:44:46.188Z,20.23
2023-04-08T09:47:23.915Z,20.36
2023-04-08T09:49:56.554Z,20.50
2023-04-08T09:52:28.403Z,20.65
2023-04-08T09:55:05.936Z,20.65
2023-04-08T09:57:41.752Z,20.63
2023-04-08T10:00:16.571Z,20.66
2023-04-08T10:03:10.744Z,20.65
2023-04-08T10:05:42.461Z,20.50
2023-04-08T10:08:10.745Z,20.33
2023-04-08T10:10:40.393Z,20.19
2023-04-08T10:13:15.864Z,20.22
2023-04-08T10:15:45.935Z,20.37
2023-04-08T10:18:30.644Z,20.49
2023-04-08T10:21:03.161Z,20.45
2023-04-08T10:23:59.886Z,20.38
2023-04-08T10:26:35.991Z,20.41
2023-04-08T10:29:19.531Z,20.55
2023-04-08T10:31:50.956Z,20.59
2023-04-08T10:34:21.347Z,20.54
2023-04-08T10:36:50.062Z,20.44
2023-04-08T10:39:19.230Z,20.41
2023-04-08T10:41:48.925Z,20.41
2023-04-08T10:44:21.060Z,20.39
2023-04-08T10:46:50.584Z,20.22
2023-04-08T10:49:19.249Z,20.17
2023-04-08T10:51:48.750Z,20.22
2023-04-08T10:54:17.784Z,20.16
2023-04-08T10:56:50.553Z,20.16
2023-04-08T10:59:32.246Z,20.14
2023-04-08T11:02:01.530Z,20.34
2023-04-08T11:04:30.380Z,20.70
2023-04-08T11:06:59.803Z,21.18
2023-04-08T11:09:28.682Z,21.77
2023-04-08T11:11:56.737Z,22.42
2023-04-08T11:14:27.463Z,22.96
2023-04-08T11:16:55.851Z,23.44
2023-04-08T11:19:24.327Z,23.83
2023-04-08T11:21:53.312Z,24.04
2023-04-08T11:24:22.491Z,23.99
2023-04-08T11:26:55.457Z,23.91
2023-04-08T11:29:23.558Z,23.58
2023-04-08T11:31:51.631Z,23.00
2023-04-08T11:34:24.615Z,22.51
2023-04-08T11:36:53.487Z,22.39
2023-04-08T11:39:24.744Z,22.49
2023-04-08T11:41:53.451Z,22.43
2023-04-08T11:44:31.054Z,22.21
2023-04-08T11:47:04.117Z,22.00
2023-04-08T11:49:44.847Z,21.83
2023-04-08T11:52:13.369Z,21.59
2023-04-08T11:54:42.739Z,21.56
2023-04-08T11:57:10.784Z,21.88
2023-04-08T11:59:39.268Z,22.15
2023-04-08T12:02:07.968Z,22.27
2023-04-08T12:04:36.224Z,22.08
2023-04-08T12:07:04.530Z,21.48
2023-04-08T12:09:32.752Z,21.07
2023-04-08T12:12:07.567Z,20.62
2023-04-08T12:14:37.647Z,20.31
2023-04-08T12:17:07.118Z,20.21
2023-04-08T12:19:39.575Z,20.40
2023-04-08T12:22:08.022Z,20.85
2023-04-08T12:24:36.311Z,21.53
2023-04-08T12:27:09.265Z,22.22
2023-04-08T12:29:39.332Z,22.67
2023-04-08T12:32:07.503Z,23.13
2023-04-08T12:34:35.682Z,23.52
2023-04-08T12:37:04.083Z,23.95
2023-04-08T12:39:33.450Z,24.25
2023-04-08T12:42:01.544Z,24.26
2023-04-08T12:44:29.806Z,24.44
2023-04-08T12:47:01.305Z,24.68
2023-04-08T12:49:30.849Z,24.76
2023-04-08T12:52:05.632Z,24.78
2023-04-08T12:54:34.267Z,24.81
2023-04-08T12:57:03.068Z,25.11
2023-04-08T12:59:33.581Z,25.33
2023-04-08T13:02:01.610Z,25.25
2023-04-08T13:04:30.878Z,25.07
2023-04-08T13:07:02.695Z,25.04
2023-04-08T13:09:34.393Z,25.17
2023-04-08T13:12:04.985Z,25.38
2023-04-08T13:14:33.536Z,25.50
2023-04-08T13:17:01.614Z,25.63
2023-04-08T13:19:31.464Z,25.90
2023-04-08T13:21:59.841Z,25.66
2023-04-08T13:24:28.529Z,25.01
2023-04-08T13:26:58.942Z,24.06
2023-04-08T13:29:28.586Z,23.00
2023-04-08T13:31:57.774Z,22.03
2023-04-08T13:34:26.362Z,21.23
2023-04-08T13:36:55.495Z,20.55
2023-04-08T13:39:23.528Z,19.97
2023-04-08T13:41:52.451Z,19.31
2023-04-08T13:44:21.001Z,18.55
2023-04-08T13:46:49.307Z,17.81
2023-04-08T13:49:17.722Z,17.09
2023-04-08T13:51:46.324Z,16.53
2023-04-08T13:54:15.362Z,16.11
2023-04-08T13:56:44.158Z,15.84
2023-04-08T13:59:12.160Z,15.59
2023-04-08T14:01:41.410Z,15.42
2023-04-08T14:04:09.829Z,15.28
2023-04-08T14:06:37.903Z,15.24
2023-04-08T14:09:06.983Z,15.20
2023-04-08T14:11:38.104Z,15.15
2023-04-08T14:14:06.691Z,15.14
2023-04-08T14:16:36.195Z,15.13
2023-04-08T14:19:05.143Z,15.06
2023-04-08T14:21:33.368Z,15.01
2023-04-08T14:24:02.836Z,14.97
2023-04-08T14:26:35.824Z,14.98
2023-04-08T14:29:05.072Z,14.96
2023-04-08T14:31:33.853Z,14.96
2023-04-08T14:34:02.267Z,14.96
2023-04-08T14:36:34.038Z,14.89
2023-04-08T14:39:05.285Z,14.83
2023-04-08T14:41:38.020Z,14.78
2023-04-08T14:44:06.578Z,14.78
2023-04-08T14:46:39.862Z,14.77
2023-04-08T14:49:09.496Z,14.78
2023-04-08T14:51:38.324Z,14.79
2023-04-08T14:54:07.702Z,14.81
2023-04-08T14:56:36.470Z,14.76
2023-04-08T14:59:06.318Z,14.67
2023-04-08T15:01:35.953Z,14.66
2023-04-08T15:04:04.436Z,14.65
2023-04-08T15:06:32.565Z,14.73
2023-04-08T15:09:01.350Z,14.80
2023-04-08T15:11:29.595Z,14.89
2023-04-08T15:13:59.429Z,14.97
2023-04-08T15:16:27.905Z,15.07
2023-04-08T15:18:59.798Z,15.18
2023-04-08T15:21:28.729Z,15.27
2023-04-08T15:23:57.254Z,15.35
2023-04-08T15:26:25.520Z,15.44
2023-04-08T15:28:54.865Z,15.49
2023-04-08T15:31:23.396Z,15.50
2023-04-08T15:33:51.718Z,15.51
2023-04-08T15:36:20.301Z,15.52
2023-04-08T15:38:48.713Z,15.49
2023-04-08T15:41:21.452Z,15.42
2023-04-08T15:43:50.356Z,15.32
2023-04-08T15:46:19.514Z,15.20
2023-04-08T15:48:48.791Z,15.11
2023-04-08T15:51:17.424Z,15.06
2023-04-08T15:53:45.910Z,15.01
2023-04-08T15:56:16.448Z,14.93
2023-04-08T15:58:45.831Z,14.86
2023-04-08T16:01:14.009Z,14.77
2023-04-08T16:03:46.519Z,14.60
2023-04-08T16:06:14.604Z,14.43
2023-04-08T16:08:50.454Z,14.30
2023-04-08T16:11:18.794Z,14.17
2023-04-08T16:13:47.845Z,13.99
2023-04-08T16:16:16.262Z,13.83
2023-04-08T16:18:46.102Z,13.72
2023-04-08T16:21:15.717Z,13.66
2023-04-08T16:23:44.347Z,13.64
2023-04-08T16:26:12.920Z,13.60
2023-04-08T16:28:43.793Z,13.54
2023-04-08T16:31:12.253Z,13.50
2023-04-08T16:33:42.021Z,13.45
2023-04-08T16:36:10.228Z,13.41
2023-04-08T16:38:43.276Z,13.37
2023-04-08T16:41:11.586Z,13.32
2023-04-08T16:43:39.652Z,13.28
2023-04-08T16:46:11.817Z,13.23
2023-04-08T16:48:41.257Z,13.21
2023-04-08T16:51:09.959Z,13.18
2023-04-08T16:53:38.337Z,13.17
2023-04-08T16:56:13.590Z,13.16
2023-04-08T16:58:42.556Z,13.15
2023-04-08T17:01:11.582Z,13.13
2023-04-08T17:03:41.479Z,13.12
2023-04-08T17:06:12.167Z,13.10
2023-04-08T17:08:49.215Z,13.06
2023-04-08T17:11:22.079Z,13.03
2023-04-08T17:13:51.278Z,12.99
2023-04-08T17:16:20.270Z,12.91
2023-04-08T17:18:50.540Z,12.82
2023-04-08T17:21:18.720Z,12.75
2023-04-08T17:23:52.235Z,12.69
2023-04-08T17:26:22.315Z,12.64
2023-04-08T17:28:50.635Z,12.60
2023-04-08T17:31:21.817Z,12.57
2023-04-08T17:33:50.680Z,12.54
2023-04-08T17:36:19.385Z,12.50
2023-04-08T17:38:49.501Z,12.45
2023-04-08T17:41:29.787Z,12.42
2023-04-08T17:44:06.093Z,12.37
2023-04-08T17:46:34.222Z,12.31
2023-04-08T17:49:08.051Z,12.28
2023-04-08T17:51:37.560Z,12.27
2023-04-08T17:54:06.034Z,12.26
2023-04-08T17:56:36.872Z,12.25
2023-04-08T17:59:05.098Z,12.25
2023-04-08T18:01:35.043Z,12.25
2023-04-08T18:04:05.840Z,12.25
2023-04-08T18:06:34.685Z,12.25
2023-04-08T18:09:06.030Z,12.25
2023-04-08T18:11:37.449Z,12.23
2023-04-08T18:14:07.084Z,12.21
2023-04-08T18:16:47.695Z,12.22
2023-04-08T18:19:16.460Z,12.23
2023-04-08T18:21:44.731Z,12.21
2023-04-08T18:24:13.473Z,12.22
2023-04-08T18:29:10.422Z,12.21
2023-04-08T18:31:40.828Z,12.17
2023-04-08T18:34:09.126Z,12.15
2023-04-08T18:36:38.451Z,12.15
2023-04-08T18:39:07.822Z,12.16
2023-04-08T18:41:47.251Z,12.15
2023-04-08T18:44:18.027Z,12.13
2023-04-08T18:46:50.555Z,12.11
2023-04-08T18:49:20.931Z,12.08
2023-04-08T18:52:01.304Z,12.06
2023-04-08T18:54:32.440Z,12.09
2023-04-08T18:57:03.278Z,12.11
2023-04-08T18:59:34.676Z,12.11
2023-04-08T19:02:04.110Z,12.14
2023-04-08T19:04:46.439Z,12.13
2023-04-08T19:07:24.250Z,12.13
2023-04-08T19:09:59.217Z,12.15
2023-04-08T19:12:28.149Z,12.16
2023-04-08T19:15:04.412Z,12.16
2023-04-08T19:17:35.767Z,12.15
2023-04-08T19:20:10.047Z,12.14
2023-04-08T19:22:43.313Z,12.14
2023-04-08T19:25:14.606Z,12.10
2023-04-08T19:27:43.265Z,12.05
2023-04-08T19:30:12.081Z,12.00
2023-04-08T19:32:43.276Z,11.95
2023-04-08T19:35:12.376Z,11.90
2023-04-08T19:37:41.250Z,11.84
2023-04-08T19:40:10.571Z,11.80
2023-04-08T19:42:42.282Z,11.76
2023-04-08T19:45:15.891Z,11.72
2023-04-08T19:47:49.424Z,11.68
2023-04-08T19:50:19.096Z,11.63
2023-04-08T19:52:47.284Z,11.60
2023-04-08T19:55:17.234Z,11.56
2023-04-08T19:57:48.744Z,11.55
2023-04-08T20:00:21.098Z,11.53
2023-04-08T20:02:50.110Z,11.51
2023-04-08T20:05:18.736Z,11.48
2023-04-08T20:07:52.314Z,11.45
2023-04-08T20:10:21.109Z,11.43
2023-04-08T20:12:49.219Z,11.39
2023-04-08T20:15:25.153Z,11.36
2023-04-08T20:17:54.117Z,11.32
2023-04-08T20:20:26.319Z,11.30
2023-04-08T20:22:56.250Z,11.29
2023-04-08T20:25:24.487Z,11.26
2023-04-08T20:27:54.981Z,11.24
2023-04-08T20:30:26.380Z,11.20
2023-04-08T20:32:54.527Z,11.16
2023-04-08T20:35:22.970Z,11.11
2023-04-08T20:37:51.212Z,11.07
2023-04-08T20:40:22.072Z,11.03
2023-04-08T20:42:50.132Z,10.96
2023-04-08T20:45:18.186Z,10.91
2023-04-08T20:47:46.676Z,10.87
2023-04-08T20:50:15.454Z,10.82
2023-04-08T20:52:44.305Z,10.75
2023-04-08T20:55:13.465Z,10.68
2023-04-08T20:57:42.145Z,10.62
2023-04-08T21:00:10.646Z,10.53
2023-04-08T21:02:40.631Z,10.45
2023-04-08T21:05:09.019Z,10.37
2023-04-08T21:07:44.484Z,10.29
2023-04-08T21:10:14.349Z,10.20
2023-04-08T21:12:48.268Z,10.14
2023-04-08T21:15:19.458Z,10.06
2023-04-08T21:17:48.062Z,10.01
2023-04-08T21:20:16.440Z,9.96
2023-04-08T21:22:45.526Z,9.90
2023-04-08T21:25:13.917Z,9.86
2023-04-08T21:27:46.311Z,9.81
2023-04-08T21:30:14.569Z,9.76
2023-04-08T21:32:42.782Z,9.70
2023-04-08T21:35:11.167Z,9.61
2023-04-08T21:37:39.473Z,9.54
2023-04-08T21:40:09.056Z,9.46
2023-04-08T21:42:38.880Z,9.37
2023-04-08T21:45:08.304Z,9.29
2023-04-08T21:47:37.325Z,9.21
2023-04-08T21:50:09.852Z,9.18
2023-04-08T21:52:38.645Z,9.17
2023-04-08T21:55:08.220Z,9.17
2023-04-08T21:57:38.016Z,9.18
2023-04-08T22:00:13.406Z,9.19
2023-04-08T22:02:52.631Z,9.22
2023-04-08T22:05:21.088Z,9.26
2023-04-08T22:07:57.418Z,9.29
2023-04-08T22:10:27.939Z,9.31
2023-04-08T22:12:56.391Z,9.31
2023-04-08T22:15:29.024Z,9.30
2023-04-08T22:17:58.943Z,9.30
2023-04-08T22:20:27.146Z,9.31
2023-04-08T22:22:58.593Z,9.34
2023-04-08T22:25:28.309Z,9.37
2023-04-08T22:27:59.118Z,9.40
2023-04-08T22:30:37.802Z,9.44
2023-04-08T22:33:06.704Z,9.47
2023-04-08T22:35:35.792Z,9.51
2023-04-08T22:38:03.838Z,9.54
2023-04-08T22:40:35.762Z,9.58
2023-04-08T22:43:03.846Z,9.60
2023-04-08T22:45:37.078Z,9.60
2023-04-08T22:48:05.455Z,9.59
2023-04-08T22:50:52.038Z,9.59
2023-04-08T22:53:21.315Z,9.58
2023-04-08T22:55:49.298Z,9.55
2023-04-08T22:58:18.330Z,9.54
2023-04-08T23:00:47.135Z,9.51
2023-04-08T23:03:16.671Z,9.46
2023-04-08T23:05:44.858Z,9.40
2023-04-08T23:08:13.693Z,9.32
2023-04-08T23:10:41.815Z,9.24
2023-04-08T23:13:09.859Z,9.18
2023-04-08T23:15:39.151Z,9.14
2023-04-08T23:18:07.628Z,9.08
2023-04-08T23:20:36.032Z,9.04
2023-04-08T23:23:04.889Z,8.99
2023-04-08T23:25:35.460Z,8.94
2023-04-08T23:28:03.804Z,8.89
2023-04-08T23:30:32.444Z,8.84
2023-04-08T23:33:05.123Z,8.79
2023-04-08T23:35:33.409Z,8.76
2023-04-08T23:38:01.861Z,8.72
2023-04-08T23:40:30.099Z,8.67
2023-04-08T23:43:03.801Z,8.61
2023-04-08T23:45:33.239Z,8.55
2023-04-08T23:48:04.622Z,8.50
2023-04-08T23:50:33.700Z,8.44
2023-04-08T23:53:01.814Z,8.39
2023-04-08T23:55:35.946Z,8.35
2023-04-08T23:58:05.097Z,8.32
